PAL912 RPLL-RCTP
Flight info
| Callsign | PAL912 |
|---|---|
| Flight time | 1h 37m |
| Altitude | 38000 |
| Route | ALPAS2R ALPAS M646 POTIB Q14 TNN TNN1A |
| Aircraft | A35K/H-SDE2E3GHIJ3J4J5LM1ORWXY/LB1D1 |
Departure
| Time | 2026-05-06 14:19 |
|---|---|
| Airport | Ninoy Aquino International Airport (RPLL) |
Arrival
| Time | 2026-05-06 15:56 |
|---|---|
| Airport | Taiwan Taoyuan International Airport (RCTP) |
| Time | Latitude | Longitude | Altitude | Speed | Heading |
|---|---|---|---|---|---|
| 2026-05-06 13:45 | 14.50502 | 121.00727 | 75 ft | 0 kts | 277° |
| 2026-05-06 13:56 | 14.50502 | 121.00728 | 75 ft | 0 kts | 277° |
| 2026-05-06 14:07 | 14.50501 | 121.00731 | 56 ft | 2 kts | 277° |
| 2026-05-06 14:07 | 14.50499 | 121.00747 | 66 ft | 2 kts | 277° |
| 2026-05-06 14:08 | 14.50497 | 121.00764 | 67 ft | 2 kts | 277° |
| 2026-05-06 14:08 | 14.50495 | 121.00781 | 64 ft | 2 kts | 279° |
| 2026-05-06 14:08 | 14.50491 | 121.00798 | 64 ft | 2 kts | 317° |
| 2026-05-06 14:08 | 14.50479 | 121.00810 | 64 ft | 2 kts | 287° |
| 2026-05-06 14:09 | 14.50479 | 121.00826 | 64 ft | 2 kts | 250° |
| 2026-05-06 14:09 | 14.50483 | 121.00836 | 64 ft | 1 kts | 241° |
| 2026-05-06 14:11 | 14.50481 | 121.00832 | 64 ft | 3 kts | 239° |
| 2026-05-06 14:12 | 14.50452 | 121.00781 | 65 ft | 11 kts | 239° |
| 2026-05-06 14:12 | 14.50409 | 121.00704 | 65 ft | 14 kts | 240° |
| 2026-05-06 14:12 | 14.50358 | 121.00613 | 65 ft | 16 kts | 240° |
| 2026-05-06 14:12 | 14.50308 | 121.00522 | 68 ft | 14 kts | 240° |
| 2026-05-06 14:13 | 14.50255 | 121.00427 | 73 ft | 16 kts | 240° |
| 2026-05-06 14:13 | 14.50201 | 121.00348 | 71 ft | 13 kts | 214° |
| 2026-05-06 14:13 | 14.50119 | 121.00317 | 73 ft | 13 kts | 219° |
| 2026-05-06 14:13 | 14.50064 | 121.00233 | 66 ft | 15 kts | 240° |
| 2026-05-06 14:14 | 14.50010 | 121.00136 | 64 ft | 16 kts | 240° |
| 2026-05-06 14:14 | 14.49954 | 121.00036 | 64 ft | 12 kts | 239° |
| 2026-05-06 14:14 | 14.49903 | 120.99976 | 66 ft | 8 kts | 204° |
| 2026-05-06 14:14 | 14.49892 | 120.99974 | 64 ft | 0 kts | 186° |
| 2026-05-06 14:17 | 14.49852 | 120.99982 | 69 ft | 12 kts | 162° |
| 2026-05-06 14:17 | 14.49823 | 121.00073 | 68 ft | 19 kts | 65° |
| 2026-05-06 14:17 | 14.49833 | 121.00092 | 71 ft | 0 kts | 61° |
| 2026-05-06 14:18 | 14.49836 | 121.00097 | 64 ft | 5 kts | 60° |
| 2026-05-06 14:18 | 14.49949 | 121.00301 | 63 ft | 69 kts | 60° |
| 2026-05-06 14:18 | 14.50306 | 121.00938 | 67 ft | 133 kts | 59° |
| 2026-05-06 14:18 | 14.50867 | 121.01904 | 331 ft | 165 kts | 58° |
| 2026-05-06 14:19 | 14.51491 | 121.02882 | 1113 ft | 162 kts | 58° |
| 2026-05-06 14:19 | 14.52139 | 121.03918 | 1600 ft | 188 kts | 58° |
| 2026-05-06 14:19 | 14.52921 | 121.05169 | 1887 ft | 225 kts | 58° |
| 2026-05-06 14:19 | 14.53796 | 121.06591 | 2254 ft | 241 kts | 58° |
| 2026-05-06 14:20 | 14.54699 | 121.08083 | 2821 ft | 248 kts | 58° |
| 2026-05-06 14:20 | 14.55624 | 121.09610 | 3439 ft | 252 kts | 58° |
| 2026-05-06 14:20 | 14.56569 | 121.11162 | 4018 ft | 258 kts | 58° |
| 2026-05-06 14:20 | 14.57537 | 121.12752 | 4603 ft | 264 kts | 58° |
| 2026-05-06 14:21 | 14.58598 | 121.14279 | 5157 ft | 268 kts | 49° |
| 2026-05-06 14:21 | 14.60057 | 121.15493 | 5726 ft | 273 kts | 29° |
| 2026-05-06 14:21 | 14.61884 | 121.16020 | 6329 ft | 278 kts | 3° |
| 2026-05-06 14:21 | 14.63804 | 121.15742 | 6919 ft | 281 kts | 346° |
| 2026-05-06 14:22 | 14.65656 | 121.15071 | 7465 ft | 285 kts | 339° |
| 2026-05-06 14:22 | 14.67468 | 121.14210 | 8034 ft | 288 kts | 336° |
| 2026-05-06 14:22 | 14.69262 | 121.13282 | 8632 ft | 289 kts | 335° |
| 2026-05-06 14:22 | 14.71068 | 121.12346 | 9214 ft | 292 kts | 336° |
| 2026-05-06 14:23 | 14.72906 | 121.11424 | 9804 ft | 295 kts | 337° |
| 2026-05-06 14:23 | 14.74782 | 121.10518 | 10261 ft | 301 kts | 338° |
| 2026-05-06 14:23 | 14.76713 | 121.09615 | 10493 ft | 316 kts | 338° |
| 2026-05-06 14:23 | 14.78770 | 121.08672 | 10707 ft | 331 kts | 339° |
| 2026-05-06 14:24 | 14.80920 | 121.07694 | 10912 ft | 344 kts | 339° |
| 2026-05-06 14:24 | 14.83158 | 121.06675 | 11117 ft | 357 kts | 338° |
| 2026-05-06 14:24 | 14.85464 | 121.05621 | 11317 ft | 368 kts | 338° |
| 2026-05-06 14:24 | 14.87839 | 121.04534 | 11566 ft | 377 kts | 338° |
| 2026-05-06 14:25 | 14.90249 | 121.03428 | 11939 ft | 381 kts | 338° |
| 2026-05-06 14:25 | 14.92684 | 121.02309 | 12341 ft | 384 kts | 338° |
| 2026-05-06 14:25 | 14.95106 | 121.01195 | 12728 ft | 387 kts | 338° |
| 2026-05-06 14:25 | 14.97573 | 121.00058 | 13113 ft | 390 kts | 338° |
| 2026-05-06 14:26 | 15.00052 | 120.98912 | 13504 ft | 392 kts | 337° |
| 2026-05-06 14:26 | 15.02559 | 120.97753 | 13862 ft | 395 kts | 337° |
| 2026-05-06 14:26 | 15.05073 | 120.96593 | 14205 ft | 397 kts | 337° |
| 2026-05-06 14:26 | 15.07602 | 120.95426 | 14568 ft | 398 kts | 337° |
| 2026-05-06 14:27 | 15.10137 | 120.94258 | 14943 ft | 399 kts | 337° |
| 2026-05-06 14:27 | 15.12683 | 120.93085 | 15309 ft | 401 kts | 337° |
| 2026-05-06 14:27 | 15.15240 | 120.91907 | 15675 ft | 403 kts | 337° |
| 2026-05-06 14:27 | 15.17816 | 120.90720 | 16050 ft | 405 kts | 337° |
| 2026-05-06 14:28 | 15.20394 | 120.89531 | 16422 ft | 407 kts | 336° |
| 2026-05-06 14:28 | 15.22982 | 120.88338 | 16798 ft | 408 kts | 336° |
| 2026-05-06 14:28 | 15.25586 | 120.87132 | 17162 ft | 410 kts | 336° |
| 2026-05-06 14:28 | 15.28198 | 120.85917 | 17533 ft | 412 kts | 336° |
| 2026-05-06 14:29 | 15.30826 | 120.84695 | 17896 ft | 414 kts | 336° |
| 2026-05-06 14:29 | 15.33460 | 120.83474 | 18249 ft | 416 kts | 336° |
| 2026-05-06 14:29 | 15.36083 | 120.82259 | 18547 ft | 418 kts | 336° |
| 2026-05-06 14:29 | 15.38746 | 120.81028 | 18846 ft | 420 kts | 336° |
| 2026-05-06 14:30 | 15.41420 | 120.79792 | 19157 ft | 422 kts | 336° |
| 2026-05-06 14:30 | 15.44114 | 120.78546 | 19474 ft | 423 kts | 336° |
| 2026-05-06 14:30 | 15.46811 | 120.77299 | 19770 ft | 425 kts | 336° |
| 2026-05-06 14:30 | 15.49521 | 120.76046 | 20066 ft | 427 kts | 336° |
| 2026-05-06 14:31 | 15.52246 | 120.74786 | 20377 ft | 429 kts | 336° |
| 2026-05-06 14:31 | 15.54974 | 120.73523 | 20662 ft | 431 kts | 336° |
| 2026-05-06 14:31 | 15.57724 | 120.72250 | 20960 ft | 433 kts | 336° |
| 2026-05-06 14:31 | 15.60476 | 120.70975 | 21254 ft | 435 kts | 336° |
| 2026-05-06 14:32 | 15.63243 | 120.69692 | 21537 ft | 436 kts | 336° |
| 2026-05-06 14:32 | 15.66024 | 120.68403 | 21818 ft | 438 kts | 336° |
| 2026-05-06 14:32 | 15.68865 | 120.67223 | 22104 ft | 440 kts | 341° |
| 2026-05-06 14:32 | 15.71752 | 120.66253 | 22375 ft | 442 kts | 342° |
| 2026-05-06 14:33 | 15.74704 | 120.65327 | 22653 ft | 444 kts | 343° |
| 2026-05-06 14:33 | 15.77677 | 120.64431 | 22927 ft | 446 kts | 343° |
| 2026-05-06 14:33 | 15.80667 | 120.63545 | 23194 ft | 448 kts | 343° |
| 2026-05-06 14:33 | 15.83676 | 120.62657 | 23458 ft | 450 kts | 343° |
| 2026-05-06 14:34 | 15.86693 | 120.61763 | 23683 ft | 452 kts | 343° |
| 2026-05-06 14:34 | 15.89728 | 120.60859 | 23899 ft | 453 kts | 343° |
| 2026-05-06 14:34 | 15.92765 | 120.59951 | 24137 ft | 454 kts | 343° |
| 2026-05-06 14:34 | 15.95805 | 120.59039 | 24372 ft | 456 kts | 343° |
| 2026-05-06 14:35 | 15.98812 | 120.58136 | 24585 ft | 457 kts | 343° |
| 2026-05-06 14:35 | 16.01877 | 120.57215 | 24807 ft | 459 kts | 343° |
| 2026-05-06 14:35 | 16.04951 | 120.56290 | 25035 ft | 460 kts | 343° |
| 2026-05-06 14:35 | 16.08024 | 120.55366 | 25259 ft | 461 kts | 343° |
| 2026-05-06 14:36 | 16.11119 | 120.54435 | 25477 ft | 463 kts | 343° |
| 2026-05-06 14:36 | 16.14225 | 120.53500 | 25703 ft | 464 kts | 343° |
| 2026-05-06 14:36 | 16.17327 | 120.52567 | 25932 ft | 466 kts | 343° |
| 2026-05-06 14:36 | 16.20447 | 120.51627 | 26162 ft | 467 kts | 343° |
| 2026-05-06 14:37 | 16.23552 | 120.50692 | 26396 ft | 468 kts | 343° |
| 2026-05-06 14:37 | 16.26701 | 120.49744 | 26636 ft | 470 kts | 343° |
| 2026-05-06 14:37 | 16.29853 | 120.48793 | 26875 ft | 471 kts | 343° |
| 2026-05-06 14:37 | 16.33020 | 120.47839 | 27119 ft | 473 kts | 343° |
| 2026-05-06 14:38 | 16.36149 | 120.46896 | 27357 ft | 474 kts | 343° |
| 2026-05-06 14:38 | 16.39327 | 120.45937 | 27603 ft | 476 kts | 343° |
| 2026-05-06 14:38 | 16.42524 | 120.44972 | 27852 ft | 477 kts | 343° |
| 2026-05-06 14:38 | 16.45725 | 120.44006 | 28109 ft | 478 kts | 343° |
| 2026-05-06 14:39 | 16.48830 | 120.43069 | 28361 ft | 480 kts | 343° |
| 2026-05-06 14:39 | 16.52052 | 120.42096 | 28635 ft | 481 kts | 343° |
| 2026-05-06 14:39 | 16.55270 | 120.41124 | 28877 ft | 482 kts | 343° |
| 2026-05-06 14:39 | 16.58506 | 120.40146 | 29116 ft | 483 kts | 343° |
| 2026-05-06 14:40 | 16.61736 | 120.39169 | 29383 ft | 484 kts | 343° |
| 2026-05-06 14:40 | 16.64953 | 120.38196 | 29644 ft | 485 kts | 343° |
| 2026-05-06 14:40 | 16.68207 | 120.37217 | 29912 ft | 486 kts | 343° |
| 2026-05-06 14:40 | 16.70394 | 120.36677 | 30069 ft | 488 kts | 348° |
| 2026-05-06 14:41 | 16.74933 | 120.36219 | 30346 ft | 491 kts | 359° |
| 2026-05-06 14:41 | 16.78318 | 120.36418 | 30543 ft | 494 kts | 4° |
| 2026-05-06 14:41 | 16.81750 | 120.36765 | 30744 ft | 496 kts | 5° |
| 2026-05-06 14:41 | 16.85195 | 120.37171 | 30945 ft | 498 kts | 5° |
| 2026-05-06 14:42 | 16.87475 | 120.37453 | 31080 ft | 499 kts | 5° |
| 2026-05-06 14:42 | 16.92108 | 120.38031 | 31345 ft | 501 kts | 5° |
| 2026-05-06 14:42 | 16.95571 | 120.38456 | 31538 ft | 503 kts | 5° |
| 2026-05-06 14:42 | 16.97875 | 120.38735 | 31664 ft | 504 kts | 5° |
| 2026-05-06 14:43 | 17.01366 | 120.39151 | 31847 ft | 505 kts | 5° |
| 2026-05-06 14:43 | 17.04867 | 120.39565 | 32076 ft | 506 kts | 5° |
| 2026-05-06 14:43 | 17.08371 | 120.39976 | 32364 ft | 505 kts | 5° |
| 2026-05-06 14:43 | 17.11802 | 120.40378 | 32615 ft | 505 kts | 5° |
| 2026-05-06 14:44 | 17.15318 | 120.40791 | 32870 ft | 505 kts | 5° |
| 2026-05-06 14:44 | 17.18808 | 120.41201 | 33141 ft | 505 kts | 5° |
| 2026-05-06 14:44 | 17.22301 | 120.41611 | 33416 ft | 505 kts | 5° |
| 2026-05-06 14:45 | 17.29288 | 120.42438 | 33977 ft | 504 kts | 5° |
| 2026-05-06 14:45 | 17.32739 | 120.42847 | 34245 ft | 504 kts | 5° |
| 2026-05-06 14:45 | 17.36259 | 120.43259 | 34531 ft | 503 kts | 5° |
| 2026-05-06 14:45 | 17.39702 | 120.43662 | 34831 ft | 502 kts | 5° |
| 2026-05-06 14:46 | 17.43179 | 120.44070 | 35126 ft | 502 kts | 5° |
| 2026-05-06 14:46 | 17.46641 | 120.44476 | 35419 ft | 501 kts | 5° |
| 2026-05-06 14:46 | 17.50099 | 120.44883 | 35732 ft | 500 kts | 5° |
| 2026-05-06 14:46 | 17.53564 | 120.45292 | 36027 ft | 500 kts | 5° |
| 2026-05-06 14:47 | 17.57022 | 120.45699 | 36321 ft | 499 kts | 5° |
| 2026-05-06 14:47 | 17.60470 | 120.46106 | 36628 ft | 499 kts | 5° |
| 2026-05-06 14:47 | 17.63932 | 120.46515 | 36869 ft | 499 kts | 5° |
| 2026-05-06 14:48 | 17.70790 | 120.47328 | 36918 ft | 498 kts | 5° |
| 2026-05-06 14:48 | 17.77698 | 120.48144 | 36916 ft | 498 kts | 5° |
| 2026-05-06 14:49 | 17.84589 | 120.48958 | 36915 ft | 498 kts | 5° |
| 2026-05-06 14:49 | 17.91456 | 120.49770 | 36911 ft | 498 kts | 5° |
| 2026-05-06 14:50 | 17.98355 | 120.50588 | 36915 ft | 498 kts | 5° |
| 2026-05-06 14:50 | 18.05199 | 120.51407 | 36916 ft | 498 kts | 5° |
| 2026-05-06 14:51 | 18.12089 | 120.52224 | 36916 ft | 498 kts | 4° |
| 2026-05-06 14:51 | 18.18951 | 120.53034 | 36915 ft | 497 kts | 5° |
| 2026-05-06 14:52 | 18.25852 | 120.53659 | 36914 ft | 496 kts | 2° |
| 2026-05-06 14:52 | 18.32741 | 120.54140 | 36915 ft | 496 kts | 2° |
| 2026-05-06 14:53 | 18.39646 | 120.54650 | 36915 ft | 496 kts | 2° |
| 2026-05-06 14:53 | 18.46306 | 120.55175 | 36916 ft | 496 kts | 2° |
| 2026-05-06 14:54 | 18.53204 | 120.55730 | 36919 ft | 496 kts | 2° |
| 2026-05-06 14:54 | 18.60040 | 120.56282 | 36920 ft | 495 kts | 2° |
| 2026-05-06 14:55 | 18.66920 | 120.56835 | 36923 ft | 495 kts | 2° |
| 2026-05-06 14:55 | 18.73789 | 120.57399 | 36927 ft | 494 kts | 2° |
| 2026-05-06 14:56 | 18.80666 | 120.57947 | 36931 ft | 494 kts | 2° |
| 2026-05-06 14:56 | 18.87506 | 120.58492 | 36937 ft | 494 kts | 2° |
| 2026-05-06 14:57 | 18.94385 | 120.59044 | 36941 ft | 494 kts | 2° |
| 2026-05-06 14:57 | 19.01194 | 120.59594 | 36942 ft | 494 kts | 2° |
| 2026-05-06 14:58 | 19.08065 | 120.60149 | 36944 ft | 493 kts | 2° |
| 2026-05-06 14:58 | 19.14923 | 120.60709 | 36947 ft | 493 kts | 2° |
| 2026-05-06 14:59 | 19.21710 | 120.61256 | 36948 ft | 493 kts | 2° |
| 2026-05-06 14:59 | 19.28423 | 120.61796 | 36948 ft | 492 kts | 2° |
| 2026-05-06 15:00 | 19.35229 | 120.62346 | 36952 ft | 492 kts | 2° |
| 2026-05-06 15:00 | 19.42068 | 120.62902 | 36951 ft | 492 kts | 2° |
| 2026-05-06 15:01 | 19.48849 | 120.63456 | 36954 ft | 492 kts | 2° |
| 2026-05-06 15:01 | 19.55683 | 120.64008 | 36954 ft | 491 kts | 2° |
| 2026-05-06 15:02 | 19.62513 | 120.64560 | 36951 ft | 491 kts | 1° |
| 2026-05-06 15:02 | 19.69346 | 120.65115 | 36957 ft | 491 kts | 1° |
| 2026-05-06 15:03 | 19.76122 | 120.65666 | 36959 ft | 491 kts | 1° |
| 2026-05-06 15:03 | 19.82950 | 120.66222 | 36957 ft | 491 kts | 1° |
| 2026-05-06 15:04 | 19.89775 | 120.66778 | 36959 ft | 492 kts | 1° |
| 2026-05-06 15:04 | 19.96567 | 120.67333 | 36959 ft | 492 kts | 1° |
| 2026-05-06 15:05 | 20.03407 | 120.67891 | 36964 ft | 491 kts | 1° |
| 2026-05-06 15:05 | 20.10238 | 120.68449 | 36959 ft | 491 kts | 1° |
| 2026-05-06 15:06 | 20.17029 | 120.69005 | 36961 ft | 491 kts | 1° |
| 2026-05-06 15:06 | 20.23862 | 120.69564 | 36964 ft | 491 kts | 1° |
| 2026-05-06 15:07 | 20.30679 | 120.70123 | 36964 ft | 491 kts | 1° |
| 2026-05-06 15:07 | 20.37460 | 120.70679 | 36967 ft | 491 kts | 1° |
| 2026-05-06 15:08 | 20.44268 | 120.71238 | 36968 ft | 491 kts | 1° |
| 2026-05-06 15:08 | 20.51058 | 120.71795 | 36966 ft | 491 kts | 1° |
| 2026-05-06 15:09 | 20.57860 | 120.72355 | 36973 ft | 490 kts | 1° |
| 2026-05-06 15:09 | 20.64639 | 120.72913 | 36971 ft | 490 kts | 1° |
| 2026-05-06 15:10 | 20.71424 | 120.73472 | 36971 ft | 490 kts | 1° |
| 2026-05-06 15:10 | 20.78243 | 120.74034 | 36975 ft | 490 kts | 1° |
| 2026-05-06 15:11 | 20.85053 | 120.74596 | 36973 ft | 490 kts | 1° |
| 2026-05-06 15:11 | 20.91814 | 120.75155 | 36975 ft | 490 kts | 1° |
| 2026-05-06 15:12 | 20.98621 | 120.75573 | 36975 ft | 487 kts | 355° |
| 2026-05-06 15:12 | 21.05239 | 120.74531 | 36977 ft | 481 kts | 345° |
| 2026-05-06 15:13 | 21.11781 | 120.72903 | 36978 ft | 481 kts | 343° |
| 2026-05-06 15:13 | 21.18253 | 120.71216 | 36981 ft | 481 kts | 343° |
| 2026-05-06 15:14 | 21.24771 | 120.69533 | 36980 ft | 480 kts | 343° |
| 2026-05-06 15:14 | 21.31246 | 120.67874 | 36970 ft | 480 kts | 343° |
| 2026-05-06 15:15 | 21.37768 | 120.66216 | 36972 ft | 480 kts | 343° |
| 2026-05-06 15:15 | 21.44241 | 120.64569 | 36983 ft | 480 kts | 343° |
| 2026-05-06 15:16 | 21.50752 | 120.62903 | 36980 ft | 479 kts | 343° |
| 2026-05-06 15:16 | 21.57211 | 120.61248 | 36985 ft | 479 kts | 343° |
| 2026-05-06 15:17 | 21.63697 | 120.59583 | 36981 ft | 479 kts | 343° |
| 2026-05-06 15:17 | 21.70113 | 120.57927 | 36981 ft | 479 kts | 343° |
| 2026-05-06 15:18 | 21.76568 | 120.56261 | 36985 ft | 479 kts | 343° |
| 2026-05-06 15:18 | 21.83061 | 120.54597 | 36984 ft | 479 kts | 343° |
| 2026-05-06 15:19 | 21.89475 | 120.52941 | 36982 ft | 478 kts | 343° |
| 2026-05-06 15:19 | 21.95965 | 120.51262 | 36981 ft | 478 kts | 343° |
| 2026-05-06 15:20 | 22.02448 | 120.49587 | 36979 ft | 478 kts | 343° |
| 2026-05-06 15:20 | 22.08885 | 120.47905 | 36978 ft | 478 kts | 343° |
| 2026-05-06 15:21 | 22.15348 | 120.46222 | 36974 ft | 478 kts | 343° |
| 2026-05-06 15:21 | 22.21827 | 120.44543 | 36974 ft | 478 kts | 343° |
| 2026-05-06 15:22 | 22.28263 | 120.42876 | 36970 ft | 478 kts | 343° |
| 2026-05-06 15:22 | 22.34734 | 120.41198 | 36973 ft | 477 kts | 343° |
| 2026-05-06 15:23 | 22.41207 | 120.39517 | 36976 ft | 477 kts | 343° |
| 2026-05-06 15:23 | 22.47632 | 120.37848 | 36981 ft | 477 kts | 343° |
| 2026-05-06 15:24 | 22.54120 | 120.36160 | 36982 ft | 477 kts | 343° |
| 2026-05-06 15:24 | 22.60553 | 120.34485 | 36984 ft | 477 kts | 343° |
| 2026-05-06 15:25 | 22.67021 | 120.32800 | 36983 ft | 476 kts | 343° |
| 2026-05-06 15:25 | 22.73427 | 120.31128 | 36978 ft | 476 kts | 343° |
| 2026-05-06 15:26 | 22.79886 | 120.29442 | 36999 ft | 476 kts | 343° |
| 2026-05-06 15:26 | 22.86329 | 120.27758 | 37009 ft | 476 kts | 343° |
| 2026-05-06 15:27 | 22.92774 | 120.26070 | 37008 ft | 476 kts | 343° |
| 2026-05-06 15:27 | 22.99171 | 120.24393 | 37008 ft | 475 kts | 343° |
| 2026-05-06 15:28 | 23.05625 | 120.22700 | 37009 ft | 475 kts | 343° |
| 2026-05-06 15:28 | 23.12029 | 120.21071 | 37000 ft | 477 kts | 347° |
| 2026-05-06 15:28 | 23.15356 | 120.20849 | 37004 ft | 483 kts | 0° |
| 2026-05-06 15:29 | 23.18716 | 120.21192 | 36998 ft | 485 kts | 2° |
| 2026-05-06 15:29 | 23.25440 | 120.22021 | 36992 ft | 485 kts | 2° |
| 2026-05-06 15:30 | 23.32105 | 120.22826 | 36513 ft | 483 kts | 2° |
| 2026-05-06 15:30 | 23.35461 | 120.23226 | 35649 ft | 488 kts | 2° |
| 2026-05-06 15:30 | 23.38861 | 120.23631 | 34795 ft | 492 kts | 2° |
| 2026-05-06 15:30 | 23.42274 | 120.24038 | 33984 ft | 496 kts | 3° |
| 2026-05-06 15:31 | 23.45729 | 120.24451 | 33022 ft | 499 kts | 3° |
| 2026-05-06 15:31 | 23.49171 | 120.24863 | 32037 ft | 504 kts | 3° |
| 2026-05-06 15:31 | 23.51492 | 120.25140 | 31371 ft | 507 kts | 3° |
| 2026-05-06 15:32 | 23.58600 | 120.25991 | 29238 ft | 518 kts | 4° |
| 2026-05-06 15:32 | 23.62178 | 120.26420 | 28251 ft | 513 kts | 4° |
| 2026-05-06 15:32 | 23.65222 | 120.26788 | 26931 ft | 503 kts | 4° |
| 2026-05-06 15:32 | 23.69821 | 120.27394 | 24834 ft | 508 kts | 8° |
| 2026-05-06 15:33 | 23.72140 | 120.27996 | 24137 ft | 500 kts | 14° |
| 2026-05-06 15:33 | 23.75425 | 120.29092 | 22615 ft | 490 kts | 16° |
| 2026-05-06 15:33 | 23.78649 | 120.30221 | 21064 ft | 481 kts | 16° |
| 2026-05-06 15:33 | 23.81795 | 120.31323 | 19680 ft | 469 kts | 16° |
| 2026-05-06 15:34 | 23.84842 | 120.32388 | 18342 ft | 458 kts | 17° |
| 2026-05-06 15:34 | 23.87852 | 120.33439 | 16857 ft | 448 kts | 17° |
| 2026-05-06 15:34 | 23.90793 | 120.34461 | 15441 ft | 443 kts | 16° |
| 2026-05-06 15:34 | 23.93733 | 120.35474 | 14818 ft | 439 kts | 16° |
| 2026-05-06 15:35 | 23.96628 | 120.36474 | 14307 ft | 431 kts | 16° |
| 2026-05-06 15:35 | 23.99436 | 120.37447 | 13688 ft | 426 kts | 16° |
| 2026-05-06 15:35 | 24.02248 | 120.38424 | 12669 ft | 415 kts | 16° |
| 2026-05-06 15:35 | 24.04977 | 120.39369 | 11921 ft | 415 kts | 16° |
| 2026-05-06 15:36 | 24.07669 | 120.40307 | 11571 ft | 398 kts | 17° |
| 2026-05-06 15:36 | 24.10230 | 120.41206 | 11223 ft | 372 kts | 16° |
| 2026-05-06 15:36 | 24.12629 | 120.42039 | 10853 ft | 355 kts | 16° |
| 2026-05-06 15:36 | 24.14953 | 120.42843 | 10638 ft | 344 kts | 15° |
| 2026-05-06 15:37 | 24.17195 | 120.43620 | 10442 ft | 331 kts | 16° |
| 2026-05-06 15:37 | 24.19354 | 120.44372 | 9748 ft | 322 kts | 15° |
| 2026-05-06 15:37 | 24.21484 | 120.45110 | 8820 ft | 319 kts | 16° |
| 2026-05-06 15:37 | 24.23595 | 120.45841 | 7970 ft | 315 kts | 16° |
| 2026-05-06 15:38 | 24.25647 | 120.46554 | 7178 ft | 311 kts | 17° |
| 2026-05-06 15:38 | 24.27726 | 120.47277 | 6415 ft | 311 kts | 17° |
| 2026-05-06 15:38 | 24.29741 | 120.47978 | 5772 ft | 304 kts | 17° |
| 2026-05-06 15:38 | 24.31737 | 120.48676 | 4980 ft | 299 kts | 17° |
| 2026-05-06 15:39 | 24.33729 | 120.49379 | 4448 ft | 299 kts | 18° |
| 2026-05-06 15:39 | 24.35674 | 120.50065 | 4077 ft | 296 kts | 18° |
| 2026-05-06 15:39 | 24.37638 | 120.50751 | 3666 ft | 294 kts | 17° |
| 2026-05-06 15:39 | 24.39568 | 120.51464 | 3259 ft | 291 kts | 22° |
| 2026-05-06 15:40 | 24.41366 | 120.52456 | 2970 ft | 284 kts | 29° |
| 2026-05-06 15:40 | 24.43048 | 120.53498 | 2802 ft | 272 kts | 30° |
| 2026-05-06 15:40 | 24.44667 | 120.54520 | 2582 ft | 263 kts | 31° |
| 2026-05-06 15:40 | 24.46211 | 120.55505 | 2533 ft | 259 kts | 31° |
| 2026-05-06 15:41 | 24.47788 | 120.56519 | 2523 ft | 266 kts | 31° |
| 2026-05-06 15:41 | 24.49397 | 120.57559 | 2517 ft | 270 kts | 31° |
| 2026-05-06 15:41 | 24.51018 | 120.58609 | 2514 ft | 270 kts | 31° |
| 2026-05-06 15:41 | 24.52635 | 120.59657 | 2512 ft | 269 kts | 31° |
| 2026-05-06 15:42 | 24.54247 | 120.60703 | 2524 ft | 269 kts | 31° |
| 2026-05-06 15:42 | 24.55843 | 120.61739 | 2522 ft | 269 kts | 31° |
| 2026-05-06 15:42 | 24.57456 | 120.62788 | 2517 ft | 270 kts | 31° |
| 2026-05-06 15:42 | 24.59078 | 120.63842 | 2514 ft | 270 kts | 31° |
| 2026-05-06 15:43 | 24.60695 | 120.64893 | 2515 ft | 271 kts | 31° |
| 2026-05-06 15:43 | 24.62323 | 120.65952 | 2507 ft | 271 kts | 31° |
| 2026-05-06 15:43 | 24.63951 | 120.67011 | 2504 ft | 271 kts | 31° |
| 2026-05-06 15:43 | 24.65556 | 120.68056 | 2508 ft | 271 kts | 31° |
| 2026-05-06 15:44 | 24.67178 | 120.69111 | 2503 ft | 270 kts | 31° |
| 2026-05-06 15:44 | 24.68796 | 120.70165 | 2511 ft | 269 kts | 31° |
| 2026-05-06 15:44 | 24.70408 | 120.71216 | 2511 ft | 269 kts | 31° |
| 2026-05-06 15:44 | 24.72017 | 120.72264 | 2508 ft | 268 kts | 31° |
| 2026-05-06 15:45 | 24.73620 | 120.73309 | 2509 ft | 268 kts | 31° |
| 2026-05-06 15:45 | 24.75208 | 120.74344 | 2506 ft | 268 kts | 31° |
| 2026-05-06 15:45 | 24.76813 | 120.75391 | 2508 ft | 267 kts | 31° |
| 2026-05-06 15:45 | 24.78418 | 120.76438 | 2503 ft | 267 kts | 31° |
| 2026-05-06 15:46 | 24.80021 | 120.77484 | 2502 ft | 267 kts | 31° |
| 2026-05-06 15:46 | 24.81595 | 120.78512 | 2502 ft | 267 kts | 31° |
| 2026-05-06 15:46 | 24.83195 | 120.79556 | 2502 ft | 266 kts | 31° |
| 2026-05-06 15:46 | 24.84787 | 120.80603 | 2502 ft | 266 kts | 32° |
| 2026-05-06 15:47 | 24.86373 | 120.81658 | 2499 ft | 266 kts | 32° |
| 2026-05-06 15:47 | 24.87959 | 120.82709 | 2503 ft | 266 kts | 31° |
| 2026-05-06 15:47 | 24.89530 | 120.83743 | 2500 ft | 266 kts | 31° |
| 2026-05-06 15:47 | 24.91060 | 120.84885 | 2496 ft | 266 kts | 42° |
| 2026-05-06 15:48 | 24.92092 | 120.86546 | 2504 ft | 264 kts | 71° |
| 2026-05-06 15:48 | 24.92522 | 120.88508 | 2495 ft | 264 kts | 80° |
| 2026-05-06 15:48 | 24.92839 | 120.90472 | 2496 ft | 258 kts | 80° |
| 2026-05-06 15:48 | 24.93137 | 120.92283 | 2494 ft | 242 kts | 80° |
| 2026-05-06 15:49 | 24.93435 | 120.94071 | 2346 ft | 232 kts | 80° |
| 2026-05-06 15:49 | 24.93717 | 120.95768 | 2380 ft | 215 kts | 81° |
| 2026-05-06 15:49 | 24.93973 | 120.97318 | 2502 ft | 201 kts | 81° |
| 2026-05-06 15:49 | 24.94216 | 120.98763 | 2548 ft | 181 kts | 80° |
| 2026-05-06 15:50 | 24.94440 | 121.00064 | 2517 ft | 165 kts | 79° |
| 2026-05-06 15:50 | 24.94649 | 121.01259 | 2432 ft | 155 kts | 79° |
| 2026-05-06 15:50 | 24.94847 | 121.02403 | 2416 ft | 147 kts | 80° |
| 2026-05-06 15:50 | 24.95037 | 121.03503 | 2418 ft | 145 kts | 80° |
| 2026-05-06 15:51 | 24.95224 | 121.04598 | 2411 ft | 146 kts | 80° |
| 2026-05-06 15:51 | 24.95450 | 121.05688 | 2403 ft | 146 kts | 75° |
| 2026-05-06 15:51 | 24.95829 | 121.06717 | 2350 ft | 147 kts | 63° |
| 2026-05-06 15:51 | 24.96384 | 121.07657 | 2280 ft | 146 kts | 53° |
| 2026-05-06 15:52 | 24.97022 | 121.08523 | 2188 ft | 145 kts | 51° |
| 2026-05-06 15:52 | 24.97670 | 121.09378 | 2103 ft | 145 kts | 52° |
| 2026-05-06 15:52 | 24.98320 | 121.10215 | 2035 ft | 145 kts | 50° |
| 2026-05-06 15:52 | 24.98980 | 121.11047 | 1952 ft | 144 kts | 50° |
| 2026-05-06 15:53 | 24.99634 | 121.11884 | 1907 ft | 143 kts | 51° |
| 2026-05-06 15:53 | 25.00279 | 121.12714 | 1853 ft | 143 kts | 51° |
| 2026-05-06 15:53 | 25.00929 | 121.13546 | 1827 ft | 142 kts | 51° |
| 2026-05-06 15:53 | 25.01577 | 121.14371 | 1765 ft | 142 kts | 50° |
| 2026-05-06 15:54 | 25.02223 | 121.15189 | 1611 ft | 143 kts | 51° |
| 2026-05-06 15:54 | 25.02878 | 121.16018 | 1426 ft | 143 kts | 51° |
| 2026-05-06 15:54 | 25.03527 | 121.16839 | 1248 ft | 141 kts | 51° |
| 2026-05-06 15:54 | 25.04161 | 121.17643 | 1076 ft | 140 kts | 50° |
| 2026-05-06 15:55 | 25.04800 | 121.18453 | 901 ft | 140 kts | 49° |
| 2026-05-06 15:55 | 25.05443 | 121.19271 | 741 ft | 141 kts | 48° |
| 2026-05-06 15:55 | 25.06096 | 121.20082 | 490 ft | 140 kts | 47° |
| 2026-05-06 15:55 | 25.06731 | 121.20896 | 321 ft | 139 kts | 47° |
| 2026-05-06 15:56 | 25.07364 | 121.21695 | 156 ft | 141 kts | 48° |
| 2026-05-06 15:56 | 25.07985 | 121.22476 | 111 ft | 127 kts | 47° |
| 2026-05-06 15:56 | 25.08495 | 121.23126 | 107 ft | 83 kts | 49° |
| 2026-05-06 15:56 | 25.08707 | 121.23398 | 108 ft | 31 kts | 49° |
| 2026-05-06 15:57 | 25.08839 | 121.23570 | 106 ft | 28 kts | 50° |
| 2026-05-06 15:57 | 25.08931 | 121.23752 | 105 ft | 27 kts | 71° |
| 2026-05-06 15:57 | 25.08951 | 121.23843 | 105 ft | 9 kts | 78° |
| 2026-05-06 15:57 | 25.08957 | 121.23873 | 104 ft | 0 kts | 79° |
| 2026-05-06 15:58 | 25.08960 | 121.23897 | 105 ft | 9 kts | 81° |
| 2026-05-06 15:58 | 25.08957 | 121.23948 | 106 ft | 1 kts | 121° |
| 2026-05-06 15:59 | 25.08949 | 121.23957 | 106 ft | 3 kts | 134° |
| 2026-05-06 15:59 | 25.08931 | 121.23963 | 106 ft | 3 kts | 178° |
| 2026-05-06 15:59 | 25.08903 | 121.23956 | 106 ft | 5 kts | 200° |
| 2026-05-06 15:59 | 25.08867 | 121.23924 | 106 ft | 8 kts | 227° |
| 2026-05-06 16:00 | 25.08821 | 121.23870 | 107 ft | 11 kts | 227° |
| 2026-05-06 16:00 | 25.08757 | 121.23813 | 106 ft | 11 kts | 202° |
| 2026-05-06 16:00 | 25.08713 | 121.23828 | 106 ft | 7 kts | 155° |
| 2026-05-06 16:00 | 25.08662 | 121.23830 | 107 ft | 8 kts | 202° |
| 2026-05-06 16:01 | 25.08619 | 121.23781 | 107 ft | 10 kts | 229° |
| 2026-05-06 16:01 | 25.08566 | 121.23713 | 107 ft | 12 kts | 229° |
| 2026-05-06 16:01 | 25.08503 | 121.23633 | 107 ft | 15 kts | 229° |
| 2026-05-06 16:01 | 25.08429 | 121.23587 | 107 ft | 10 kts | 166° |
| 2026-05-06 16:02 | 25.08383 | 121.23633 | 107 ft | 6 kts | 137° |
| 2026-05-06 16:02 | 25.08360 | 121.23657 | 107 ft | 4 kts | 138° |
| 2026-05-06 16:02 | 25.08357 | 121.23659 | 107 ft | 0 kts | 139° |